sensor_id;sensor_type;location;lat;lon;timestamp;P1;durP1;ratioP1;P2;durP2;ratioP2
1837;SDS011;918;50.796;6.772;2023-08-30T00:00:45;9.43;;;8.80;;
1837;SDS011;918;50.796;6.772;2023-08-30T00:03:11;9.77;;;9.10;;
1837;SDS011;918;50.796;6.772;2023-08-30T00:05:40;9.53;;;8.73;;
1837;SDS011;918;50.796;6.772;2023-08-30T00:08:06;9.37;;;8.50;;
1837;SDS011;918;50.796;6.772;2023-08-30T00:10:32;8.70;;;8.07;;
1837;SDS011;918;50.796;6.772;2023-08-30T00:12:57;9.23;;;8.67;;
1837;SDS011;918;50.796;6.772;2023-08-30T00:15:22;8.70;;;8.10;;
1837;SDS011;918;50.796;6.772;2023-08-30T00:17:47;9.83;;;8.97;;
1837;SDS011;918;50.796;6.772;2023-08-30T00:20:13;11.40;;;10.53;;
1837;SDS011;918;50.796;6.772;2023-08-30T00:22:38;11.30;;;10.40;;
1837;SDS011;918;50.796;6.772;2023-08-30T00:25:04;9.83;;;9.03;;
1837;SDS011;918;50.796;6.772;2023-08-30T00:27:30;11.00;;;10.20;;
1837;SDS011;918;50.796;6.772;2023-08-30T00:29:55;10.20;;;9.40;;
1837;SDS011;918;50.796;6.772;2023-08-30T00:32:20;9.70;;;8.90;;
1837;SDS011;918;50.796;6.772;2023-08-30T00:34:49;9.93;;;9.33;;
1837;SDS011;918;50.796;6.772;2023-08-30T00:37:15;9.57;;;8.87;;
1837;SDS011;918;50.796;6.772;2023-08-30T00:39:40;9.40;;;8.73;;
1837;SDS011;918;50.796;6.772;2023-08-30T00:42:05;8.70;;;8.00;;
1837;SDS011;918;50.796;6.772;2023-08-30T00:44:32;8.63;;;8.03;;
1837;SDS011;918;50.796;6.772;2023-08-30T00:46:58;9.57;;;8.87;;
1837;SDS011;918;50.796;6.772;2023-08-30T00:49:25;8.47;;;7.87;;
1837;SDS011;918;50.796;6.772;2023-08-30T00:51:50;8.70;;;8.00;;
1837;SDS011;918;50.796;6.772;2023-08-30T00:54:16;8.60;;;7.90;;
1837;SDS011;918;50.796;6.772;2023-08-30T00:56:41;8.90;;;8.20;;
1837;SDS011;918;50.796;6.772;2023-08-30T00:59:07;8.10;;;7.60;;
1837;SDS011;918;50.796;6.772;2023-08-30T01:01:32;9.33;;;8.63;;
1837;SDS011;918;50.796;6.772;2023-08-30T01:03:57;8.30;;;7.77;;
1837;SDS011;918;50.796;6.772;2023-08-30T01:06:23;8.43;;;7.83;;
1837;SDS011;918;50.796;6.772;2023-08-30T01:08:48;8.10;;;7.50;;
1837;SDS011;918;50.796;6.772;2023-08-30T01:11:22;8.03;;;7.43;;
1837;SDS011;918;50.796;6.772;2023-08-30T01:14:10;8.40;;;7.80;;
1837;SDS011;918;50.796;6.772;2023-08-30T01:16:38;8.60;;;7.80;;
1837;SDS011;918;50.796;6.772;2023-08-30T01:19:26;7.90;;;7.40;;
1837;SDS011;918;50.796;6.772;2023-08-30T01:22:21;7.00;;;6.50;;
1837;SDS011;918;50.796;6.772;2023-08-30T01:28:06;7.47;;;6.97;;
1837;SDS011;918;50.796;6.772;2023-08-30T01:30:32;7.63;;;7.13;;
1837;SDS011;918;50.796;6.772;2023-08-30T01:33:01;7.00;;;6.60;;
1837;SDS011;918;50.796;6.772;2023-08-30T01:35:28;7.90;;;7.40;;
1837;SDS011;918;50.796;6.772;2023-08-30T01:37:57;7.37;;;6.67;;
1837;SDS011;918;50.796;6.772;2023-08-30T01:40:23;7.60;;;6.97;;
1837;SDS011;918;50.796;6.772;2023-08-30T01:42:49;7.50;;;7.00;;
1837;SDS011;918;50.796;6.772;2023-08-30T01:45:15;6.90;;;6.40;;
1837;SDS011;918;50.796;6.772;2023-08-30T01:47:41;7.23;;;6.73;;
1837;SDS011;918;50.796;6.772;2023-08-30T01:50:07;6.50;;;6.10;;
1837;SDS011;918;50.796;6.772;2023-08-30T01:52:33;7.73;;;7.23;;
1837;SDS011;918;50.796;6.772;2023-08-30T01:54:59;7.10;;;6.60;;
1837;SDS011;918;50.796;6.772;2023-08-30T01:57:25;7.60;;;7.00;;
1837;SDS011;918;50.796;6.772;2023-08-30T01:59:50;7.70;;;7.10;;
1837;SDS011;918;50.796;6.772;2023-08-30T02:02:15;8.40;;;7.63;;
1837;SDS011;918;50.796;6.772;2023-08-30T02:04:41;6.33;;;5.93;;
1837;SDS011;918;50.796;6.772;2023-08-30T02:07:21;7.63;;;7.13;;
1837;SDS011;918;50.796;6.772;2023-08-30T02:09:57;7.47;;;6.97;;
1837;SDS011;918;50.796;6.772;2023-08-30T02:12:24;7.57;;;6.97;;
1837;SDS011;918;50.796;6.772;2023-08-30T02:15:13;7.67;;;7.20;;
1837;SDS011;918;50.796;6.772;2023-08-30T02:17:39;6.47;;;6.07;;
1837;SDS011;918;50.796;6.772;2023-08-30T02:20:05;8.00;;;7.30;;
1837;SDS011;918;50.796;6.772;2023-08-30T02:22:31;7.90;;;7.13;;
1837;SDS011;918;50.796;6.772;2023-08-30T02:24:56;7.47;;;6.97;;
1837;SDS011;918;50.796;6.772;2023-08-30T02:27:22;7.07;;;6.67;;
1837;SDS011;918;50.796;6.772;2023-08-30T02:29:48;7.80;;;7.20;;
1837;SDS011;918;50.796;6.772;2023-08-30T02:32:13;7.37;;;6.87;;
1837;SDS011;918;50.796;6.772;2023-08-30T02:34:40;7.70;;;7.20;;
1837;SDS011;918;50.796;6.772;2023-08-30T02:37:05;7.63;;;7.13;;
1837;SDS011;918;50.796;6.772;2023-08-30T02:39:30;8.00;;;7.40;;
1837;SDS011;918;50.796;6.772;2023-08-30T02:41:55;8.80;;;8.00;;
1837;SDS011;918;50.796;6.772;2023-08-30T02:44:20;7.13;;;6.63;;
1837;SDS011;918;50.796;6.772;2023-08-30T02:46:46;8.40;;;7.80;;
1837;SDS011;918;50.796;6.772;2023-08-30T02:49:11;7.93;;;7.40;;
1837;SDS011;918;50.796;6.772;2023-08-30T02:51:36;8.40;;;7.80;;
1837;SDS011;918;50.796;6.772;2023-08-30T02:54:02;7.60;;;7.00;;
1837;SDS011;918;50.796;6.772;2023-08-30T02:56:27;7.93;;;7.43;;
1837;SDS011;918;50.796;6.772;2023-08-30T02:58:53;7.80;;;7.20;;
1837;SDS011;918;50.796;6.772;2023-08-30T03:01:18;7.47;;;7.00;;
1837;SDS011;918;50.796;6.772;2023-08-30T03:03:45;7.70;;;7.10;;
1837;SDS011;918;50.796;6.772;2023-08-30T03:06:10;8.83;;;8.23;;
1837;SDS011;918;50.796;6.772;2023-08-30T03:08:35;8.03;;;7.43;;
1837;SDS011;918;50.796;6.772;2023-08-30T03:11:08;7.90;;;7.40;;
1837;SDS011;918;50.796;6.772;2023-08-30T03:13:34;7.07;;;6.47;;
1837;SDS011;918;50.796;6.772;2023-08-30T03:15:59;7.87;;;7.37;;
1837;SDS011;918;50.796;6.772;2023-08-30T03:18:24;8.40;;;7.70;;
1837;SDS011;918;50.796;6.772;2023-08-30T03:20:59;7.50;;;7.00;;
1837;SDS011;918;50.796;6.772;2023-08-30T03:23:25;7.83;;;7.33;;
1837;SDS011;918;50.796;6.772;2023-08-30T03:25:51;8.37;;;7.67;;
1837;SDS011;918;50.796;6.772;2023-08-30T03:28:16;8.03;;;7.43;;
1837;SDS011;918;50.796;6.772;2023-08-30T03:30:41;8.10;;;7.50;;
1837;SDS011;918;50.796;6.772;2023-08-30T03:33:07;8.53;;;8.00;;
1837;SDS011;918;50.796;6.772;2023-08-30T03:35:33;7.60;;;7.10;;
1837;SDS011;918;50.796;6.772;2023-08-30T03:38:00;7.53;;;7.03;;
1837;SDS011;918;50.796;6.772;2023-08-30T03:40:25;11.13;;;7.33;;
1837;SDS011;918;50.796;6.772;2023-08-30T03:42:52;8.10;;;7.40;;
1837;SDS011;918;50.796;6.772;2023-08-30T03:45:17;7.37;;;6.87;;
1837;SDS011;918;50.796;6.772;2023-08-30T03:47:42;8.20;;;7.60;;
1837;SDS011;918;50.796;6.772;2023-08-30T03:50:08;7.93;;;7.43;;
1837;SDS011;918;50.796;6.772;2023-08-30T03:52:34;7.67;;;7.10;;
1837;SDS011;918;50.796;6.772;2023-08-30T03:55:00;8.27;;;7.67;;
1837;SDS011;918;50.796;6.772;2023-08-30T03:57:25;8.37;;;7.77;;
1837;SDS011;918;50.796;6.772;2023-08-30T03:59:51;8.80;;;8.00;;
1837;SDS011;918;50.796;6.772;2023-08-30T04:02:16;8.77;;;8.17;;
1837;SDS011;918;50.796;6.772;2023-08-30T04:04:41;8.50;;;7.90;;
1837;SDS011;918;50.796;6.772;2023-08-30T04:07:07;8.90;;;8.20;;
1837;SDS011;918;50.796;6.772;2023-08-30T04:09:32;8.30;;;7.40;;
1837;SDS011;918;50.796;6.772;2023-08-30T04:11:57;9.03;;;8.43;;
1837;SDS011;918;50.796;6.772;2023-08-30T04:14:24;8.10;;;7.50;;
1837;SDS011;918;50.796;6.772;2023-08-30T04:16:49;9.10;;;8.20;;
1837;SDS011;918;50.796;6.772;2023-08-30T04:19:14;9.23;;;8.13;;
1837;SDS011;918;50.796;6.772;2023-08-30T04:21:40;8.10;;;7.50;;
1837;SDS011;918;50.796;6.772;2023-08-30T04:24:05;9.10;;;8.50;;
1837;SDS011;918;50.796;6.772;2023-08-30T04:26:30;9.10;;;8.40;;
1837;SDS011;918;50.796;6.772;2023-08-30T04:28:56;9.60;;;8.47;;
1837;SDS011;918;50.796;6.772;2023-08-30T04:31:21;8.57;;;7.97;;
1837;SDS011;918;50.796;6.772;2023-08-30T04:33:46;9.07;;;8.17;;
1837;SDS011;918;50.796;6.772;2023-08-30T04:36:11;8.93;;;8.13;;
1837;SDS011;918;50.796;6.772;2023-08-30T04:38:37;8.50;;;7.90;;
1837;SDS011;918;50.796;6.772;2023-08-30T04:41:02;8.73;;;8.03;;
1837;SDS011;918;50.796;6.772;2023-08-30T04:43:27;9.70;;;9.00;;
1837;SDS011;918;50.796;6.772;2023-08-30T04:45:53;10.07;;;9.07;;
1837;SDS011;918;50.796;6.772;2023-08-30T04:48:18;8.97;;;8.33;;
1837;SDS011;918;50.796;6.772;2023-08-30T04:50:44;10.00;;;9.20;;
1837;SDS011;918;50.796;6.772;2023-08-30T04:53:09;9.63;;;8.83;;
1837;SDS011;918;50.796;6.772;2023-08-30T04:55:34;9.10;;;8.50;;
1837;SDS011;918;50.796;6.772;2023-08-30T04:58:00;8.67;;;8.07;;
1837;SDS011;918;50.796;6.772;2023-08-30T05:00:25;9.03;;;8.30;;
1837;SDS011;918;50.796;6.772;2023-08-30T05:02:50;9.07;;;8.37;;
1837;SDS011;918;50.796;6.772;2023-08-30T05:05:16;9.07;;;8.37;;
1837;SDS011;918;50.796;6.772;2023-08-30T05:07:41;9.47;;;8.63;;
1837;SDS011;918;50.796;6.772;2023-08-30T05:10:06;9.43;;;8.63;;
1837;SDS011;918;50.796;6.772;2023-08-30T05:12:33;8.30;;;7.60;;
1837;SDS011;918;50.796;6.772;2023-08-30T05:14:59;9.10;;;8.30;;
1837;SDS011;918;50.796;6.772;2023-08-30T05:17:24;8.50;;;7.90;;
1837;SDS011;918;50.796;6.772;2023-08-30T05:19:50;9.40;;;8.63;;
1837;SDS011;918;50.796;6.772;2023-08-30T05:22:15;8.67;;;7.97;;
1837;SDS011;918;50.796;6.772;2023-08-30T05:24:40;8.73;;;8.00;;
1837;SDS011;918;50.796;6.772;2023-08-30T05:27:06;8.87;;;8.17;;
1837;SDS011;918;50.796;6.772;2023-08-30T05:29:32;8.90;;;8.20;;
1837;SDS011;918;50.796;6.772;2023-08-30T05:31:57;9.07;;;8.03;;
1837;SDS011;918;50.796;6.772;2023-08-30T05:34:22;8.40;;;7.80;;
1837;SDS011;918;50.796;6.772;2023-08-30T05:36:48;8.10;;;7.50;;
1837;SDS011;918;50.796;6.772;2023-08-30T05:39:14;7.67;;;7.17;;
1837;SDS011;918;50.796;6.772;2023-08-30T05:41:39;9.60;;;8.33;;
1837;SDS011;918;50.796;6.772;2023-08-30T05:44:04;8.67;;;7.97;;
1837;SDS011;918;50.796;6.772;2023-08-30T05:46:30;9.53;;;8.73;;
1837;SDS011;918;50.796;6.772;2023-08-30T05:48:56;9.27;;;8.47;;
1837;SDS011;918;50.796;6.772;2023-08-30T05:51:21;8.90;;;8.20;;
1837;SDS011;918;50.796;6.772;2023-08-30T05:53:46;8.10;;;7.60;;
1837;SDS011;918;50.796;6.772;2023-08-30T05:56:12;7.93;;;7.33;;
1837;SDS011;918;50.796;6.772;2023-08-30T05:58:37;8.07;;;7.43;;
1837;SDS011;918;50.796;6.772;2023-08-30T06:01:03;8.97;;;8.23;;
1837;SDS011;918;50.796;6.772;2023-08-30T06:03:28;8.43;;;7.83;;
1837;SDS011;918;50.796;6.772;2023-08-30T06:05:54;8.57;;;7.80;;
1837;SDS011;918;50.796;6.772;2023-08-30T06:08:19;8.83;;;8.07;;
1837;SDS011;918;50.796;6.772;2023-08-30T06:10:44;9.63;;;8.93;;
1837;SDS011;918;50.796;6.772;2023-08-30T06:13:10;9.23;;;8.30;;
1837;SDS011;918;50.796;6.772;2023-08-30T06:15:35;7.93;;;7.33;;
1837;SDS011;918;50.796;6.772;2023-08-30T06:18:02;8.80;;;8.03;;
1837;SDS011;918;50.796;6.772;2023-08-30T06:20:28;8.30;;;7.50;;
1837;SDS011;918;50.796;6.772;2023-08-30T06:22:53;8.50;;;7.90;;
1837;SDS011;918;50.796;6.772;2023-08-30T06:25:19;7.57;;;6.87;;
1837;SDS011;918;50.796;6.772;2023-08-30T06:27:54;7.67;;;7.03;;
1837;SDS011;918;50.796;6.772;2023-08-30T06:30:21;7.73;;;6.93;;
1837;SDS011;918;50.796;6.772;2023-08-30T06:32:47;7.13;;;6.63;;
1837;SDS011;918;50.796;6.772;2023-08-30T06:35:13;7.73;;;6.93;;
1837;SDS011;918;50.796;6.772;2023-08-30T06:37:38;6.57;;;6.13;;
1837;SDS011;918;50.796;6.772;2023-08-30T06:40:03;7.90;;;7.30;;
1837;SDS011;918;50.796;6.772;2023-08-30T06:42:29;7.10;;;6.40;;
1837;SDS011;918;50.796;6.772;2023-08-30T06:44:54;6.70;;;6.03;;
1837;SDS011;918;50.796;6.772;2023-08-30T06:47:19;6.93;;;6.43;;
1837;SDS011;918;50.796;6.772;2023-08-30T06:49:45;6.87;;;6.27;;
1837;SDS011;918;50.796;6.772;2023-08-30T06:52:11;6.30;;;5.80;;
1837;SDS011;918;50.796;6.772;2023-08-30T06:54:36;7.50;;;6.70;;
1837;SDS011;918;50.796;6.772;2023-08-30T06:57:01;8.20;;;7.40;;
1837;SDS011;918;50.796;6.772;2023-08-30T06:59:27;8.10;;;7.30;;
1837;SDS011;918;50.796;6.772;2023-08-30T07:01:53;14.73;;;7.33;;
1837;SDS011;918;50.796;6.772;2023-08-30T07:04:18;7.40;;;6.80;;
1837;SDS011;918;50.796;6.772;2023-08-30T07:06:44;10.23;;;7.50;;
1837;SDS011;918;50.796;6.772;2023-08-30T07:09:09;10.03;;;8.43;;
1837;SDS011;918;50.796;6.772;2023-08-30T07:11:36;11.17;;;9.33;;
1837;SDS011;918;50.796;6.772;2023-08-30T07:14:02;11.30;;;9.37;;
1837;SDS011;918;50.796;6.772;2023-08-30T07:16:27;8.47;;;7.50;;
1837;SDS011;918;50.796;6.772;2023-08-30T07:18:52;8.10;;;7.30;;
1837;SDS011;918;50.796;6.772;2023-08-30T07:21:17;9.60;;;8.13;;
1837;SDS011;918;50.796;6.772;2023-08-30T07:23:43;6.80;;;6.10;;
1837;SDS011;918;50.796;6.772;2023-08-30T07:26:08;11.47;;;9.57;;
1837;SDS011;918;50.796;6.772;2023-08-30T07:28:34;8.43;;;7.63;;
1837;SDS011;918;50.796;6.772;2023-08-30T07:31:05;7.13;;;6.53;;
1837;SDS011;918;50.796;6.772;2023-08-30T07:33:31;5.77;;;5.37;;
1837;SDS011;918;50.796;6.772;2023-08-30T07:35:56;8.10;;;5.80;;
1837;SDS011;918;50.796;6.772;2023-08-30T07:38:21;6.03;;;5.50;;
1837;SDS011;918;50.796;6.772;2023-08-30T07:40:47;5.80;;;4.97;;
1837;SDS011;918;50.796;6.772;2023-08-30T07:43:12;5.67;;;4.90;;
1837;SDS011;918;50.796;6.772;2023-08-30T07:45:37;4.67;;;4.27;;
1837;SDS011;918;50.796;6.772;2023-08-30T07:48:02;4.73;;;4.33;;
1837;SDS011;918;50.796;6.772;2023-08-30T07:50:28;4.20;;;3.90;;
1837;SDS011;918;50.796;6.772;2023-08-30T07:52:53;4.60;;;4.20;;
1837;SDS011;918;50.796;6.772;2023-08-30T07:55:18;3.70;;;3.40;;
1837;SDS011;918;50.796;6.772;2023-08-30T07:57:44;5.30;;;4.40;;
1837;SDS011;918;50.796;6.772;2023-08-30T08:00:09;4.57;;;4.27;;
1837;SDS011;918;50.796;6.772;2023-08-30T08:02:35;4.97;;;3.80;;
1837;SDS011;918;50.796;6.772;2023-08-30T08:05:00;4.00;;;3.70;;
1837;SDS011;918;50.796;6.772;2023-08-30T08:07:25;4.40;;;4.03;;
1837;SDS011;918;50.796;6.772;2023-08-30T08:09:51;3.83;;;3.53;;
1837;SDS011;918;50.796;6.772;2023-08-30T08:12:16;3.57;;;3.30;;
1837;SDS011;918;50.796;6.772;2023-08-30T08:14:41;5.30;;;3.70;;
1837;SDS011;918;50.796;6.772;2023-08-30T08:17:08;3.90;;;3.60;;
1837;SDS011;918;50.796;6.772;2023-08-30T08:19:33;3.23;;;2.93;;
1837;SDS011;918;50.796;6.772;2023-08-30T08:21:58;3.60;;;3.30;;
1837;SDS011;918;50.796;6.772;2023-08-30T08:24:23;4.20;;;3.87;;
1837;SDS011;918;50.796;6.772;2023-08-30T08:26:49;6.60;;;3.67;;
1837;SDS011;918;50.796;6.772;2023-08-30T08:29:14;3.43;;;3.23;;
1837;SDS011;918;50.796;6.772;2023-08-30T08:31:39;3.40;;;3.10;;
1837;SDS011;918;50.796;6.772;2023-08-30T08:34:11;4.07;;;3.77;;
1837;SDS011;918;50.796;6.772;2023-08-30T08:36:41;4.53;;;3.47;;
1837;SDS011;918;50.796;6.772;2023-08-30T08:39:07;3.73;;;3.37;;
1837;SDS011;918;50.796;6.772;2023-08-30T08:41:35;3.40;;;3.10;;
1837;SDS011;918;50.796;6.772;2023-08-30T08:44:07;3.13;;;2.70;;
1837;SDS011;918;50.796;6.772;2023-08-30T08:46:37;3.73;;;3.40;;
1837;SDS011;918;50.796;6.772;2023-08-30T08:49:15;3.40;;;3.10;;
1837;SDS011;918;50.796;6.772;2023-08-30T08:51:42;3.30;;;3.00;;
1837;SDS011;918;50.796;6.772;2023-08-30T08:54:09;3.50;;;3.20;;
1837;SDS011;918;50.796;6.772;2023-08-30T08:56:36;3.10;;;2.90;;
1837;SDS011;918;50.796;6.772;2023-08-30T08:59:02;3.10;;;2.80;;
1837;SDS011;918;50.796;6.772;2023-08-30T09:01:28;3.40;;;3.10;;
1837;SDS011;918;50.796;6.772;2023-08-30T09:03:53;3.17;;;2.87;;
1837;SDS011;918;50.796;6.772;2023-08-30T09:06:19;3.10;;;2.77;;
1837;SDS011;918;50.796;6.772;2023-08-30T09:08:44;3.13;;;2.50;;
1837;SDS011;918;50.796;6.772;2023-08-30T09:11:09;2.97;;;2.77;;
1837;SDS011;918;50.796;6.772;2023-08-30T09:13:35;4.33;;;2.80;;
1837;SDS011;918;50.796;6.772;2023-08-30T09:16:00;3.13;;;2.83;;
1837;SDS011;918;50.796;6.772;2023-08-30T09:18:25;4.80;;;3.57;;
1837;SDS011;918;50.796;6.772;2023-08-30T09:21:05;3.67;;;2.70;;
1837;SDS011;918;50.796;6.772;2023-08-30T09:23:31;4.70;;;2.40;;
1837;SDS011;918;50.796;6.772;2023-08-30T09:25:56;3.20;;;2.90;;
1837;SDS011;918;50.796;6.772;2023-08-30T09:28:21;5.87;;;3.73;;
1837;SDS011;918;50.796;6.772;2023-08-30T09:30:50;3.30;;;3.00;;
1837;SDS011;918;50.796;6.772;2023-08-30T09:33:20;3.30;;;3.03;;
1837;SDS011;918;50.796;6.772;2023-08-30T09:35:46;4.27;;;3.30;;
1837;SDS011;918;50.796;6.772;2023-08-30T09:38:18;5.30;;;3.20;;
1837;SDS011;918;50.796;6.772;2023-08-30T09:40:43;3.40;;;3.10;;
1837;SDS011;918;50.796;6.772;2023-08-30T09:43:09;3.43;;;3.23;;
1837;SDS011;918;50.796;6.772;2023-08-30T09:45:35;3.97;;;3.17;;
1837;SDS011;918;50.796;6.772;2023-08-30T09:48:01;3.30;;;3.00;;
1837;SDS011;918;50.796;6.772;2023-08-30T09:50:26;3.60;;;2.60;;
1837;SDS011;918;50.796;6.772;2023-08-30T09:52:53;2.90;;;2.70;;
1837;SDS011;918;50.796;6.772;2023-08-30T09:55:18;3.50;;;3.20;;
1837;SDS011;918;50.796;6.772;2023-08-30T09:57:44;3.10;;;2.63;;
1837;SDS011;918;50.796;6.772;2023-08-30T10:00:10;3.23;;;2.60;;
1837;SDS011;918;50.796;6.772;2023-08-30T10:02:41;2.70;;;2.50;;
1837;SDS011;918;50.796;6.772;2023-08-30T10:05:08;3.63;;;2.87;;
1837;SDS011;918;50.796;6.772;2023-08-30T10:07:38;5.50;;;2.73;;
1837;SDS011;918;50.796;6.772;2023-08-30T10:10:04;3.07;;;2.40;;
1837;SDS011;918;50.796;6.772;2023-08-30T10:12:31;2.53;;;2.17;;
1837;SDS011;918;50.796;6.772;2023-08-30T10:14:57;2.60;;;2.40;;
1837;SDS011;918;50.796;6.772;2023-08-30T10:17:22;3.33;;;2.80;;
1837;SDS011;918;50.796;6.772;2023-08-30T10:19:52;3.23;;;2.33;;
1837;SDS011;918;50.796;6.772;2023-08-30T10:22:18;2.60;;;2.40;;
1837;SDS011;918;50.796;6.772;2023-08-30T10:24:45;3.57;;;3.37;;
1837;SDS011;918;50.796;6.772;2023-08-30T10:27:13;3.20;;;2.67;;
1837;SDS011;918;50.796;6.772;2023-08-30T10:29:39;2.00;;;1.90;;
1837;SDS011;918;50.796;6.772;2023-08-30T10:32:06;2.77;;;2.50;;
1837;SDS011;918;50.796;6.772;2023-08-30T10:34:32;3.20;;;2.50;;
1837;SDS011;918;50.796;6.772;2023-08-30T10:37:02;2.73;;;2.53;;
1837;SDS011;918;50.796;6.772;2023-08-30T10:39:37;2.10;;;1.90;;
1837;SDS011;918;50.796;6.772;2023-08-30T10:42:10;2.43;;;2.10;;
1837;SDS011;918;50.796;6.772;2023-08-30T10:47:24;3.73;;;2.30;;
1837;SDS011;918;50.796;6.772;2023-08-30T10:49:57;3.27;;;2.70;;
1837;SDS011;918;50.796;6.772;2023-08-30T10:52:24;2.60;;;2.20;;
1837;SDS011;918;50.796;6.772;2023-08-30T10:54:50;2.60;;;2.40;;
1837;SDS011;918;50.796;6.772;2023-08-30T10:57:19;2.40;;;2.20;;
1837;SDS011;918;50.796;6.772;2023-08-30T11:02:43;2.90;;;2.67;;
1837;SDS011;918;50.796;6.772;2023-08-30T11:05:10;3.20;;;2.30;;
1837;SDS011;918;50.796;6.772;2023-08-30T11:07:35;2.30;;;2.10;;
1837;SDS011;918;50.796;6.772;2023-08-30T11:10:00;2.70;;;2.33;;
1837;SDS011;918;50.796;6.772;2023-08-30T11:12:26;3.17;;;2.70;;
1837;SDS011;918;50.796;6.772;2023-08-30T11:14:52;3.80;;;2.80;;
1837;SDS011;918;50.796;6.772;2023-08-30T11:17:19;3.00;;;2.80;;
1837;SDS011;918;50.796;6.772;2023-08-30T11:19:45;2.90;;;2.70;;
1837;SDS011;918;50.796;6.772;2023-08-30T11:22:12;2.73;;;2.53;;
1837;SDS011;918;50.796;6.772;2023-08-30T11:24:37;2.87;;;2.67;;
1837;SDS011;918;50.796;6.772;2023-08-30T11:27:03;3.00;;;2.70;;
1837;SDS011;918;50.796;6.772;2023-08-30T11:29:28;2.83;;;2.40;;
1837;SDS011;918;50.796;6.772;2023-08-30T11:31:53;4.00;;;2.93;;
1837;SDS011;918;50.796;6.772;2023-08-30T11:34:21;3.30;;;3.10;;
1837;SDS011;918;50.796;6.772;2023-08-30T11:36:47;3.87;;;2.90;;
1837;SDS011;918;50.796;6.772;2023-08-30T11:39:13;2.70;;;2.50;;
1837;SDS011;918;50.796;6.772;2023-08-30T11:41:38;3.00;;;2.80;;
1837;SDS011;918;50.796;6.772;2023-08-30T11:44:04;2.43;;;2.23;;
1837;SDS011;918;50.796;6.772;2023-08-30T11:46:30;2.73;;;2.60;;
1837;SDS011;918;50.796;6.772;2023-08-30T11:48:55;3.47;;;2.93;;
1837;SDS011;918;50.796;6.772;2023-08-30T11:51:20;3.10;;;2.90;;
1837;SDS011;918;50.796;6.772;2023-08-30T11:53:46;3.57;;;3.37;;
1837;SDS011;918;50.796;6.772;2023-08-30T11:56:11;3.40;;;3.20;;
1837;SDS011;918;50.796;6.772;2023-08-30T11:58:37;3.70;;;3.40;;
1837;SDS011;918;50.796;6.772;2023-08-30T12:01:06;4.83;;;3.20;;
1837;SDS011;918;50.796;6.772;2023-08-30T12:03:32;3.27;;;3.07;;
1837;SDS011;918;50.796;6.772;2023-08-30T12:05:57;3.23;;;3.03;;
1837;SDS011;918;50.796;6.772;2023-08-30T12:08:24;4.90;;;2.93;;
1837;SDS011;918;50.796;6.772;2023-08-30T12:10:51;2.70;;;2.50;;
1837;SDS011;918;50.796;6.772;2023-08-30T12:13:23;3.20;;;3.00;;
1837;SDS011;918;50.796;6.772;2023-08-30T12:15:49;3.47;;;3.17;;
1837;SDS011;918;50.796;6.772;2023-08-30T12:18:15;2.43;;;2.33;;
1837;SDS011;918;50.796;6.772;2023-08-30T12:20:50;2.70;;;2.50;;
1837;SDS011;918;50.796;6.772;2023-08-30T12:23:20;2.60;;;2.40;;
1837;SDS011;918;50.796;6.772;2023-08-30T12:25:56;2.70;;;2.50;;
1837;SDS011;918;50.796;6.772;2023-08-30T12:28:31;2.80;;;2.47;;
1837;SDS011;918;50.796;6.772;2023-08-30T12:30:58;2.30;;;2.20;;
1837;SDS011;918;50.796;6.772;2023-08-30T12:33:23;2.63;;;2.30;;
1837;SDS011;918;50.796;6.772;2023-08-30T12:35:52;2.30;;;2.20;;
1837;SDS011;918;50.796;6.772;2023-08-30T12:38:18;2.53;;;2.43;;
1837;SDS011;918;50.796;6.772;2023-08-30T12:40:46;2.53;;;2.30;;
1837;SDS011;918;50.796;6.772;2023-08-30T12:43:13;2.73;;;2.53;;
1837;SDS011;918;50.796;6.772;2023-08-30T12:45:39;2.50;;;2.30;;
1837;SDS011;918;50.796;6.772;2023-08-30T12:48:05;2.63;;;2.43;;
1837;SDS011;918;50.796;6.772;2023-08-30T12:50:31;2.60;;;2.50;;
1837;SDS011;918;50.796;6.772;2023-08-30T12:52:56;2.57;;;2.37;;
1837;SDS011;918;50.796;6.772;2023-08-30T12:55:22;2.60;;;2.50;;
1837;SDS011;918;50.796;6.772;2023-08-30T12:57:47;2.47;;;2.27;;
1837;SDS011;918;50.796;6.772;2023-08-30T13:00:13;2.83;;;2.63;;
1837;SDS011;918;50.796;6.772;2023-08-30T13:02:39;2.73;;;2.53;;
1837;SDS011;918;50.796;6.772;2023-08-30T13:05:05;2.30;;;2.20;;
1837;SDS011;918;50.796;6.772;2023-08-30T13:07:30;3.70;;;2.70;;
1837;SDS011;918;50.796;6.772;2023-08-30T13:09:56;2.20;;;2.10;;
1837;SDS011;918;50.796;6.772;2023-08-30T13:12:21;3.07;;;2.73;;
1837;SDS011;918;50.796;6.772;2023-08-30T13:14:46;2.90;;;2.70;;
1837;SDS011;918;50.796;6.772;2023-08-30T13:17:12;2.50;;;2.30;;
1837;SDS011;918;50.796;6.772;2023-08-30T13:19:37;3.20;;;3.00;;
1837;SDS011;918;50.796;6.772;2023-08-30T13:22:02;3.10;;;2.80;;
1837;SDS011;918;50.796;6.772;2023-08-30T13:24:27;2.40;;;2.20;;
1837;SDS011;918;50.796;6.772;2023-08-30T13:26:53;2.40;;;2.20;;
1837;SDS011;918;50.796;6.772;2023-08-30T13:29:18;2.17;;;1.97;;
1837;SDS011;918;50.796;6.772;2023-08-30T13:31:43;2.30;;;2.10;;
1837;SDS011;918;50.796;6.772;2023-08-30T13:34:08;6.73;;;2.37;;
1837;SDS011;918;50.796;6.772;2023-08-30T13:36:34;2.67;;;2.47;;
1837;SDS011;918;50.796;6.772;2023-08-30T13:39:01;2.20;;;2.10;;
1837;SDS011;918;50.796;6.772;2023-08-30T13:41:27;2.53;;;2.43;;
1837;SDS011;918;50.796;6.772;2023-08-30T13:43:52;2.10;;;2.00;;
1837;SDS011;918;50.796;6.772;2023-08-30T13:46:17;1.80;;;1.70;;
1837;SDS011;918;50.796;6.772;2023-08-30T13:48:43;1.93;;;1.83;;
1837;SDS011;918;50.796;6.772;2023-08-30T13:51:08;2.30;;;2.00;;
1837;SDS011;918;50.796;6.772;2023-08-30T13:53:33;2.40;;;2.20;;
1837;SDS011;918;50.796;6.772;2023-08-30T13:55:58;3.93;;;1.80;;
1837;SDS011;918;50.796;6.772;2023-08-30T13:58:24;1.97;;;1.87;;
1837;SDS011;918;50.796;6.772;2023-08-30T14:00:49;1.97;;;1.87;;
1837;SDS011;918;50.796;6.772;2023-08-30T14:03:14;2.03;;;1.90;;
1837;SDS011;918;50.796;6.772;2023-08-30T14:05:40;2.47;;;2.37;;
1837;SDS011;918;50.796;6.772;2023-08-30T14:08:05;2.07;;;1.97;;
1837;SDS011;918;50.796;6.772;2023-08-30T14:10:31;2.50;;;2.40;;
1837;SDS011;918;50.796;6.772;2023-08-30T14:12:56;3.03;;;2.73;;
1837;SDS011;918;50.796;6.772;2023-08-30T14:15:22;2.80;;;2.00;;
1837;SDS011;918;50.796;6.772;2023-08-30T14:17:47;2.80;;;2.60;;
1837;SDS011;918;50.796;6.772;2023-08-30T14:20:12;4.20;;;3.10;;
1837;SDS011;918;50.796;6.772;2023-08-30T14:22:38;2.67;;;2.47;;
1837;SDS011;918;50.796;6.772;2023-08-30T14:25:03;3.00;;;2.60;;
1837;SDS011;918;50.796;6.772;2023-08-30T14:27:29;3.13;;;2.93;;
1837;SDS011;918;50.796;6.772;2023-08-30T14:29:56;2.97;;;2.77;;
1837;SDS011;918;50.796;6.772;2023-08-30T14:32:21;5.93;;;3.40;;
1837;SDS011;918;50.796;6.772;2023-08-30T14:34:46;3.40;;;3.07;;
1837;SDS011;918;50.796;6.772;2023-08-30T14:37:11;3.67;;;3.20;;
1837;SDS011;918;50.796;6.772;2023-08-30T14:39:37;4.23;;;3.47;;
1837;SDS011;918;50.796;6.772;2023-08-30T14:42:02;3.77;;;3.57;;
1837;SDS011;918;50.796;6.772;2023-08-30T14:44:27;3.27;;;3.07;;
1837;SDS011;918;50.796;6.772;2023-08-30T14:46:53;3.00;;;2.80;;
1837;SDS011;918;50.796;6.772;2023-08-30T14:49:18;3.57;;;3.37;;
1837;SDS011;918;50.796;6.772;2023-08-30T14:51:43;3.50;;;3.30;;
1837;SDS011;918;50.796;6.772;2023-08-30T14:54:09;3.53;;;3.23;;
1837;SDS011;918;50.796;6.772;2023-08-30T14:56:34;3.87;;;3.13;;
1837;SDS011;918;50.796;6.772;2023-08-30T14:58:59;3.40;;;3.10;;
1837;SDS011;918;50.796;6.772;2023-08-30T15:01:24;3.93;;;3.63;;
1837;SDS011;918;50.796;6.772;2023-08-30T15:03:50;3.50;;;3.30;;
1837;SDS011;918;50.796;6.772;2023-08-30T15:06:15;4.20;;;3.90;;
1837;SDS011;918;50.796;6.772;2023-08-30T15:08:40;3.73;;;3.43;;
1837;SDS011;918;50.796;6.772;2023-08-30T15:11:07;4.33;;;3.87;;
1837;SDS011;918;50.796;6.772;2023-08-30T15:13:33;3.67;;;3.37;;
1837;SDS011;918;50.796;6.772;2023-08-30T15:15:58;3.70;;;3.37;;
1837;SDS011;918;50.796;6.772;2023-08-30T15:18:23;5.17;;;4.30;;
1837;SDS011;918;50.796;6.772;2023-08-30T15:20:52;4.27;;;3.87;;
1837;SDS011;918;50.796;6.772;2023-08-30T15:23:18;4.17;;;3.87;;
1837;SDS011;918;50.796;6.772;2023-08-30T15:25:44;3.63;;;3.37;;
1837;SDS011;918;50.796;6.772;2023-08-30T15:28:10;7.80;;;5.07;;
1837;SDS011;918;50.796;6.772;2023-08-30T15:30:36;4.07;;;3.67;;
1837;SDS011;918;50.796;6.772;2023-08-30T15:33:01;4.00;;;3.70;;